Nearby METAR Reports

 

KDVT - Phoenix/Deer Vly, Arizona, USA
Distance from station: SW 14mi, 22km
Updated: 2020-09-30 14:53
Clear
Clear
 Wind from SSW
Wind: SSW 7 mph , 11 km/h
Temperature: 100°F , 38°C
Dew Point: 32°F , 0°C
Humidity: 9%
Barometer: 29.92 inHg , 1013.2 hPa
Clouds: Clear
Visibility: 10 miles , 16 km
2020/09/30 21:53 KDVT 302153Z 20006KT 10SM CLR 38/00 A2992 RMK AO2 SLP104 T03780000
KSDL - Scottsdale, Arizona, USA
Distance from station: S 15mi, 23km
Updated: 2020-09-30 14:53
Clear
Clear
 Wind from WSW
Wind: WSW 7 mph , 11 km/h
Temperature: 100°F , 38°C
Dew Point: 34°F , 1°C
Humidity: 10%
Barometer: 29.92 inHg , 1013.2 hPa
Clouds: Clear
Visibility: 10 miles , 16 km
2020/09/30 21:53 KSDL 302153Z 24006KT 10SM CLR 38/01 A2992 RMK AO2 SLP104 T03830011
KFFZ - Mesa/Falcon Fld, Arizona, USA
Distance from station: SSE 27mi, 44km
Updated: 2020-09-30 14:54
Clear
Clear
 Wind from WSW
Wind: WSW 9 mph , 15 km/h
Temperature: 100°F , 38°C
Dew Point: 34°F , 1°C
Humidity: 10%
Barometer: 29.91 inHg , 1012.9 hPa
Clouds: Clear
Visibility: 10 miles , 16 km
2020/09/30 21:54 KFFZ 302154Z 25008KT 10SM CLR 38/01 A2991 RMK AO2 SLP101 T03830006
 
KPHX - Phoenix/Sky Hrbr, Arizona, USA
Distance from station: SSW 28mi, 45km
Updated: 2020-09-30 14:51
Clear
Clear
 Wind from W
Wind: W 8 mph , 13 km/h
Temperature: 104°F , 40°C
Dew Point: 34°F , 1°C
Humidity: 9%
Barometer: 29.88 inHg , 1011.9 hPa
Clouds: Clear
Visibility: 10 miles , 16 km
2020/09/30 21:51 KPHX 302151Z 26007KT 10SM CLR 40/01 A2988 RMK AO2 SLP097 T04000006
KLUF - Luke Afb/Glendal, Arizona, USA
Distance from station: SW 34mi, 55km
Updated: 2020-09-30 14:56
Clear
Clear
 Wind from WSW
Wind: WSW 3 mph , 6 km/h
Temperature: 102°F , 39°C
Dew Point: 27°F , -3°C
Humidity: 7%
Barometer: 29.87 inHg , 1011.5 hPa
Clouds: Clear
Visibility: 10 miles , 16 km
2020/09/30 21:56 KLUF 302156Z AUTO 24003KT 10SM CLR 39/M03 A2987 RMK AO2 SLP101 T03901031 $
KGYR - Goodyear Municip, Arizona, USA
Distance from station: SW 39mi, 63km
Updated: 2020-09-30 14:47
Clear
Clear
 Wind from WSW
Wind: WSW 6 mph , 9 km/h
Temperature: 102°F , 39°C
Dew Point: 36°F , 2°C
Humidity: 10%
Barometer: 29.89 inHg , 1012.2 hPa
Clouds: Clear
Visibility: 10 miles , 16 km
2020/09/30 21:47 KGYR 302147Z 24005KT 10SM SKC 39/02 A2989
 
KIWA - Chandler/Mesa, Arizona, USA
Distance from station: SSE 39mi, 63km
Updated: 2020-09-30 14:50
Clear
Clear
 Wind from W
Wind: W 12 mph , 19 km/h
Temperature: 100°F , 38°C
Dew Point: 36°F , 2°C
Humidity: 10%
Barometer: 29.93 inHg , 1013.5 hPa
Clouds: Clear
Visibility: 10 miles , 16 km
2020/09/30 21:50 KIWA 302150Z 28010KT 10SM SKC 38/02 A2993
KPAN - Payson, Arizona, USA
Distance from station: NE 44mi, 70km
Updated: 2020-09-30 14:55
Clear
Clear
 Wind from NW
Wind: NW 8 mph , 13 km/h, Gust: 17 mph , 28 km/h
Temperature: 88°F , 31°C
Dew Point: 18°F , -8°C
Humidity: 7%
Barometer: 30.21 inHg , 1023 hPa
Clouds: Clear
Visibility: 10 miles , 16 km
2020/09/30 21:55 KPAN 302155Z AUTO 32007G15KT 10SM CLR 31/M08 A3021 RMK AO2
KBXK - Buckeye, Arizona, USA
Distance from station: WSW 53mi, 86km
Updated: 2020-09-30 14:55

 Wind from varies
Wind: varies 5 mph , 7 km/h
Temperature: 102°F , 39°C
Dew Point: 32°F , 0°C
Humidity: 9%
Barometer: 29.90 inHg , 1012.5 hPa
Visibility: 10 miles , 16 km
2020/09/30 21:55 KBXK 302155Z AUTO VRB04KT 10SM 39/M00 A2990 RMK A01
 
KA39 - Maricopa Ak-Chin, Arizona, USA
Distance from station: S 58mi, 94km
Updated: 2020-09-30 14:55
Clear
Clear
 Wind from NNW
Wind: NNW 6 mph , 9 km/h
Temperature: 100°F , 38°C
Dew Point: 34°F , 1°C
Humidity: 10%
Barometer: 29.95 inHg , 1014.2 hPa
Clouds: Clear
Visibility: 10 miles , 16 km
2020/09/30 21:55 KA39 302155Z AUTO 33005KT 10SM CLR 38/01 A2995 RMK AO2
KPRC - Prescott, Arizona, USA
Distance from station: NNW 64mi, 103km
Updated: 2020-09-30 14:53
Clear
Clear
 Wind from varies
Wind: varies 6 mph , 9 km/h
Temperature: 88°F , 31°C
Dew Point: 18°F , -8°C
Humidity: 7%
Barometer: 30.20 inHg , 1022.7 hPa
Clouds: Clear
Visibility: 10 miles , 16 km
2020/09/30 21:53 KPRC 302153Z VRB05KT 10SM CLR 31/M08 A3020 RMK AO2 SLP151 T03061078
KSEZ - Sedona, Arizona, USA
Distance from station: N 71mi, 114km
Updated: 2020-09-30 14:55
Clear
Clear
 Wind from WSW
Wind: WSW 5 mph , 7 km/h
Temperature: 90°F , 32°C
Dew Point: 21°F , -6°C
Humidity: 8%
Barometer: 30.17 inHg , 1021.7 hPa
Clouds: Clear
Visibility: 10 miles , 16 km
2020/09/30 21:55 KSEZ 302155Z AUTO 24004KT 10SM CLR 32/M06 A3017 RMK AO2
 
KFLG - Flagstaff, Arizona, USA
Distance from station: N 91mi, 147km
Updated: 2020-09-30 14:56

 
2020/09/30 21:56 KFLG 302156Z 080/08G18KT 10SM CLR 26/M10 A3036